Time;durP1;ratioP1;P1;durP2;ratioP2;P2;SDS_P1;SDS_P2;PMS_P1;PMS_P2;Temp;Humidity;BMP_temperature;BMP_pressure;BME280_temperature;BME280_humidity;BME280_pressure;Samples;Min_cycle;Max_cycle;Signal;HPM_P1;HPM_P2
2022/10/10 00:02:17;;;;;;;2.35;0.75;;;;;;;;;;5085729;28;20039;-52
2022/10/10 00:04:43;;;;;;;0.70;0.70;;;;;;;;;;5089302;28;20039;-53
2022/10/10 00:07:09;;;;;;;1.10;0.98;;;;;;;;;;5088595;28;20469;-52
2022/10/10 00:09:35;;;;;;;1.17;0.90;;;;;;;;;;5087589;28;20586;-52
2022/10/10 00:12:01;;;;;;;0.60;0.60;;;;;;;;;;5089374;28;20084;-52
2022/10/10 00:14:27;;;;;;;0.63;0.63;;;;;;;;;;5089035;28;20028;-52
2022/10/10 00:16:53;;;;;;;1.33;0.60;;;;;;;;;;5089293;28;20102;-52
2022/10/10 00:19:19;;;;;;;0.98;0.80;;;;;;;;;;5089077;28;20094;-52
2022/10/10 00:21:45;;;;;;;1.10;0.80;;;;;;;;;;5078087;28;20055;-52
2022/10/10 00:24:11;;;;;;;0.98;0.70;;;;;;;;;;5069491;28;20024;-52
2022/10/10 00:26:37;;;;;;;0.70;0.70;;;;;;;;;;5086192;28;20024;-52
2022/10/10 00:29:03;;;;;;;0.70;0.70;;;;;;;;;;5088726;28;20039;-53
2022/10/10 00:31:30;;;;;;;0.70;0.70;;;;;;;;;;5088694;28;20028;-51
2022/10/10 00:33:56;;;;;;;0.70;0.70;;;;;;;;;;5087930;28;20028;-49
2022/10/10 00:36:22;;;;;;;0.60;0.60;;;;;;;;;;5088078;28;20035;-51
2022/10/10 00:38:48;;;;;;;0.50;0.50;;;;;;;;;;5087538;28;20040;-50
2022/10/10 00:41:14;;;;;;;0.75;0.70;;;;;;;;;;5089227;28;20061;-53
2022/10/10 00:43:40;;;;;;;0.80;0.80;;;;;;;;;;5089170;28;20024;-53
2022/10/10 00:46:06;;;;;;;1.63;0.90;;;;;;;;;;5088793;28;20085;-52
2022/10/10 00:48:34;;;;;;;2.97;0.90;;;;;;;;;;5088182;28;20624;-52
2022/10/10 00:51:11;;;;;;;1.65;0.90;;;;;;;;;;5088875;28;20479;-52
2022/10/10 00:53:39;;;;;;;1.10;0.90;;;;;;;;;;5069488;28;20082;-52
2022/10/10 00:56:06;;;;;;;0.93;0.90;;;;;;;;;;5068384;28;20032;-53
2022/10/10 00:58:33;;;;;;;0.93;0.75;;;;;;;;;;5067759;28;20031;-52
2022/10/10 01:00:59;;;;;;;0.70;0.70;;;;;;;;;;5068105;28;20064;-52
2022/10/10 01:03:25;;;;;;;1.00;0.93;;;;;;;;;;5067982;28;20036;-53
2022/10/10 01:05:51;;;;;;;0.90;0.70;;;;;;;;;;5068278;28;20028;-52
2022/10/10 01:08:18;;;;;;;0.95;0.70;;;;;;;;;;5085157;28;20031;-50
2022/10/10 01:11:07;;;;;;;0.82;0.80;;;;;;;;;;5088445;28;20074;-53
2022/10/10 01:13:33;;;;;;;0.70;0.70;;;;;;;;;;5082338;28;20105;-52
2022/10/10 01:16:32;;;;;;;0.70;0.70;;;;;;;;;;5085448;28;20036;-50
2022/10/10 01:19:13;;;;;;;0.70;0.60;;;;;;;;;;5033981;28;20074;-52
2022/10/10 01:21:58;;;;;;;1.30;0.65;;;;;;;;;;5067308;28;20099;-53
2022/10/10 01:24:26;;;;;;;0.52;0.52;;;;;;;;;;5068439;28;20064;-50
2022/10/10 01:27:11;;;;;;;0.93;0.90;;;;;;;;;;5066929;28;20020;-52
2022/10/10 01:29:39;;;;;;;0.70;0.70;;;;;;;;;;5067170;28;20028;-51
2022/10/10 01:32:09;;;;;;;2.67;1.00;;;;;;;;;;5078110;28;20035;-51
2022/10/10 01:34:38;;;;;;;1.10;0.93;;;;;;;;;;5087541;28;20055;-51
2022/10/10 01:37:09;;;;;;;1.00;0.90;;;;;;;;;;5087606;28;20058;-52
2022/10/10 01:39:54;;;;;;;0.70;0.70;;;;;;;;;;5087111;28;20111;-50
2022/10/10 01:42:26;;;;;;;1.05;0.95;;;;;;;;;;5087760;28;20051;-49
2022/10/10 01:44:53;;;;;;;1.00;0.90;;;;;;;;;;5087396;28;20028;-51
2022/10/10 01:47:20;;;;;;;1.15;0.70;;;;;;;;;;5085889;28;20025;-53
2022/10/10 01:49:48;;;;;;;1.75;0.80;;;;;;;;;;5087303;28;20378;-52
2022/10/10 01:52:14;;;;;;;0.73;0.73;;;;;;;;;;5087491;28;20031;-51
2022/10/10 01:54:41;;;;;;;0.80;0.80;;;;;;;;;;5087037;28;20084;-49
2022/10/10 01:57:16;;;;;;;1.17;0.75;;;;;;;;;;5087465;28;20016;-50
2022/10/10 01:59:57;;;;;;;1.52;0.90;;;;;;;;;;5086822;28;20035;-51
2022/10/10 02:02:32;;;;;;;1.20;1.10;;;;;;;;;;5086363;28;20399;-52
2022/10/10 02:05:03;;;;;;;3.13;1.25;;;;;;;;;;5087268;28;20028;-51
2022/10/10 02:07:37;;;;;;;0.70;0.70;;;;;;;;;;5086963;28;20020;-51
2022/10/10 02:10:05;;;;;;;0.93;0.93;;;;;;;;;;5087072;28;20108;-50
2022/10/10 02:12:31;;;;;;;0.70;0.70;;;;;;;;;;5086900;28;20075;-53
2022/10/10 02:15:01;;;;;;;1.02;0.90;;;;;;;;;;5087024;28;20073;-52
2022/10/10 02:17:27;;;;;;;0.77;0.77;;;;;;;;;;5085336;28;20027;-50
2022/10/10 02:19:55;;;;;;;1.02;0.70;;;;;;;;;;5087496;28;20028;-51
2022/10/10 02:22:23;;;;;;;1.20;0.88;;;;;;;;;;5086801;28;20025;-50
2022/10/10 02:24:50;;;;;;;1.00;0.60;;;;;;;;;;5086663;28;20076;-51
2022/10/10 02:27:19;;;;;;;1.55;1.10;;;;;;;;;;5085981;28;20039;-49
2022/10/10 02:29:47;;;;;;;1.70;0.90;;;;;;;;;;5086369;28;20052;-52
2022/10/10 02:32:26;;;;;;;0.82;0.82;;;;;;;;;;5086209;28;20056;-50
2022/10/10 02:34:54;;;;;;;0.60;0.60;;;;;;;;;;5087165;28;20111;-51
2022/10/10 02:37:21;;;;;;;2.10;1.00;;;;;;;;;;5086731;28;20396;-53
2022/10/10 02:39:53;;;;;;;1.50;1.02;;;;;;;;;;5086326;28;20698;-51
2022/10/10 02:42:21;;;;;;;1.30;1.08;;;;;;;;;;5086424;28;20031;-51
2022/10/10 02:44:47;;;;;;;1.33;1.10;;;;;;;;;;5086394;28;20024;-52
2022/10/10 02:47:13;;;;;;;2.42;1.20;;;;;;;;;;5084805;28;20032;-49
2022/10/10 02:49:40;;;;;;;1.38;1.10;;;;;;;;;;5086226;28;20024;-51
2022/10/10 02:52:06;;;;;;;1.20;1.10;;;;;;;;;;5086712;28;20107;-51
2022/10/10 02:54:32;;;;;;;0.98;0.93;;;;;;;;;;5085284;28;20091;-49
2022/10/10 02:56:58;;;;;;;1.00;0.90;;;;;;;;;;5086659;28;20028;-51
2022/10/10 02:59:24;;;;;;;1.70;1.20;;;;;;;;;;5087031;28;20482;-53
2022/10/10 03:01:50;;;;;;;1.20;1.10;;;;;;;;;;5086394;28;20388;-53
2022/10/10 03:04:16;;;;;;;1.13;1.02;;;;;;;;;;5086671;28;20027;-52
2022/10/10 03:06:42;;;;;;;1.50;1.00;;;;;;;;;;5085680;28;20534;-51
2022/10/10 03:09:08;;;;;;;1.42;0.95;;;;;;;;;;5084157;28;20072;-50
2022/10/10 03:11:34;;;;;;;0.88;0.80;;;;;;;;;;5085535;28;20032;-52
2022/10/10 03:14:00;;;;;;;1.13;0.90;;;;;;;;;;5082928;28;20785;-51
2022/10/10 03:16:26;;;;;;;0.80;0.80;;;;;;;;;;5079721;28;20425;-51
2022/10/10 03:18:52;;;;;;;0.73;0.73;;;;;;;;;;5082960;28;20522;-52
2022/10/10 03:21:19;;;;;;;0.77;0.70;;;;;;;;;;5065800;28;20476;-53
2022/10/10 03:23:45;;;;;;;1.83;0.70;;;;;;;;;;5066169;28;20614;-52
2022/10/10 03:26:11;;;;;;;1.35;0.90;;;;;;;;;;5066294;28;20467;-51
2022/10/10 03:28:37;;;;;;;1.05;0.75;;;;;;;;;;5066300;28;20033;-52
2022/10/10 03:31:04;;;;;;;0.90;0.90;;;;;;;;;;5076931;28;20024;-50
2022/10/10 03:33:30;;;;;;;1.10;0.80;;;;;;;;;;5086007;28;20647;-52
2022/10/10 03:35:56;;;;;;;0.98;0.70;;;;;;;;;;5086121;28;20027;-52
2022/10/10 03:38:22;;;;;;;1.70;0.70;;;;;;;;;;5087377;28;20102;-53
2022/10/10 03:40:48;;;;;;;2.22;0.80;;;;;;;;;;5089678;28;20487;-53
2022/10/10 03:43:14;;;;;;;0.95;0.80;;;;;;;;;;5089786;28;20779;-52
2022/10/10 03:45:46;;;;;;;0.95;0.80;;;;;;;;;;5089560;28;20062;-52
2022/10/10 03:48:12;;;;;;;0.75;0.60;;;;;;;;;;5090152;28;20027;-52
2022/10/10 03:50:38;;;;;;;0.68;0.68;;;;;;;;;;5090654;28;20065;-52
2022/10/10 03:53:05;;;;;;;0.98;0.82;;;;;;;;;;5090008;28;20441;-54
2022/10/10 03:55:31;;;;;;;0.77;0.70;;;;;;;;;;5089363;28;20103;-52
2022/10/10 03:57:57;;;;;;;0.80;0.80;;;;;;;;;;5089978;28;20036;-51
2022/10/10 04:00:23;;;;;;;1.42;1.10;;;;;;;;;;5087861;28;20034;-50
2022/10/10 04:02:49;;;;;;;0.80;0.80;;;;;;;;;;5089844;28;20028;-52
2022/10/10 04:05:15;;;;;;;0.80;0.80;;;;;;;;;;5089587;28;20023;-52
2022/10/10 04:07:41;;;;;;;0.80;0.80;;;;;;;;;;5089623;28;20024;-50
2022/10/10 04:10:08;;;;;;;0.70;0.70;;;;;;;;;;5090087;28;20565;-50
2022/10/10 04:12:35;;;;;;;0.98;0.60;;;;;;;;;;5089465;28;20071;-50
2022/10/10 04:15:01;;;;;;;0.80;0.70;;;;;;;;;;5088735;28;20085;-52
2022/10/10 04:17:27;;;;;;;1.17;0.77;;;;;;;;;;5088602;28;20169;-49
2022/10/10 04:19:53;;;;;;;1.60;0.85;;;;;;;;;;5089485;28;20028;-52
2022/10/10 04:22:19;;;;;;;0.80;0.80;;;;;;;;;;5089111;28;20472;-51
2022/10/10 04:24:45;;;;;;;1.08;0.95;;;;;;;;;;5089273;28;20020;-52
2022/10/10 04:27:11;;;;;;;0.95;0.85;;;;;;;;;;5089261;28;20024;-52
2022/10/10 04:29:37;;;;;;;1.13;0.80;;;;;;;;;;5088808;28;20387;-48
2022/10/10 04:32:03;;;;;;;1.67;1.20;;;;;;;;;;5089263;28;20032;-49
2022/10/10 04:34:30;;;;;;;0.77;0.70;;;;;;;;;;5082931;28;20016;-50
2022/10/10 04:36:56;;;;;;;1.00;0.90;;;;;;;;;;5080115;28;20029;-52
2022/10/10 04:39:22;;;;;;;1.20;0.82;;;;;;;;;;5068679;28;20031;-50
2022/10/10 04:41:48;;;;;;;0.70;0.70;;;;;;;;;;5083615;28;20032;-49
2022/10/10 04:44:15;;;;;;;1.05;0.95;;;;;;;;;;5069628;28;20031;-52
2022/10/10 04:46:41;;;;;;;0.80;0.80;;;;;;;;;;5068866;28;20028;-49
2022/10/10 04:49:07;;;;;;;1.13;0.80;;;;;;;;;;5077939;28;20580;-49
2022/10/10 04:51:33;;;;;;;1.33;0.90;;;;;;;;;;5088461;28;20640;-50
2022/10/10 04:53:59;;;;;;;0.98;0.88;;;;;;;;;;5089061;28;20028;-51
2022/10/10 04:56:25;;;;;;;0.88;0.88;;;;;;;;;;5089038;28;20396;-52
2022/10/10 04:58:52;;;;;;;0.80;0.80;;;;;;;;;;5088897;28;20107;-49
2022/10/10 05:01:18;;;;;;;1.30;1.05;;;;;;;;;;5088655;28;20031;-53
2022/10/10 05:03:44;;;;;;;0.95;0.90;;;;;;;;;;5088358;28;20093;-49
2022/10/10 05:06:10;;;;;;;0.80;0.80;;;;;;;;;;5088971;28;20027;-51
2022/10/10 05:08:36;;;;;;;1.17;0.88;;;;;;;;;;5088771;28;20601;-52
2022/10/10 05:11:02;;;;;;;1.35;1.25;;;;;;;;;;5087839;28;20032;-50
2022/10/10 05:13:28;;;;;;;0.93;0.93;;;;;;;;;;5087666;28;20609;-52
2022/10/10 05:15:54;;;;;;;0.88;0.88;;;;;;;;;;5088305;28;20416;-52
2022/10/10 05:18:21;;;;;;;0.90;0.90;;;;;;;;;;5081787;28;20032;-51
2022/10/10 05:20:47;;;;;;;1.38;1.05;;;;;;;;;;5071125;28;20518;-50
2022/10/10 05:23:16;;;;;;;0.90;0.70;;;;;;;;;;5074162;28;20111;-52
2022/10/10 05:25:43;;;;;;;1.30;1.20;;;;;;;;;;5088349;28;20411;-52
2022/10/10 05:28:10;;;;;;;1.70;0.80;;;;;;;;;;5081733;28;20052;-48
2022/10/10 05:30:36;;;;;;;1.30;1.05;;;;;;;;;;5079687;28;20040;-52
2022/10/10 05:33:02;;;;;;;2.03;1.00;;;;;;;;;;5088057;28;20016;-49
2022/10/10 05:35:28;;;;;;;2.10;1.17;;;;;;;;;;5087805;28;20040;-50
2022/10/10 05:37:54;;;;;;;1.85;1.00;;;;;;;;;;5082272;28;20583;-49
2022/10/10 05:40:21;;;;;;;1.00;0.90;;;;;;;;;;5086980;28;20110;-53
2022/10/10 05:42:48;;;;;;;0.82;0.82;;;;;;;;;;5085925;28;20103;-53
2022/10/10 05:45:14;;;;;;;0.80;0.80;;;;;;;;;;5085967;28;20020;-50
2022/10/10 05:47:40;;;;;;;0.95;0.90;;;;;;;;;;5088162;28;20028;-49
2022/10/10 05:50:07;;;;;;;1.00;0.88;;;;;;;;;;5087990;28;20114;-52
2022/10/10 05:52:34;;;;;;;1.40;1.02;;;;;;;;;;5077677;28;20058;-50
2022/10/10 05:55:00;;;;;;;1.25;1.00;;;;;;;;;;5083811;28;20036;-50
2022/10/10 05:57:26;;;;;;;1.58;1.25;;;;;;;;;;5085062;28;20473;-49
2022/10/10 05:59:53;;;;;;;1.00;0.90;;;;;;;;;;5085013;28;20158;-48
2022/10/10 06:02:19;;;;;;;1.15;0.90;;;;;;;;;;5083670;28;20035;-50
2022/10/10 06:04:45;;;;;;;1.95;1.20;;;;;;;;;;5076560;28;20033;-50
2022/10/10 06:07:11;;;;;;;1.00;0.85;;;;;;;;;;5080272;28;20150;-52
2022/10/10 06:09:37;;;;;;;1.10;1.00;;;;;;;;;;5085292;28;20020;-49
2022/10/10 06:12:03;;;;;;;1.65;0.80;;;;;;;;;;5087987;28;20522;-51
2022/10/10 06:14:30;;;;;;;1.48;0.98;;;;;;;;;;5080225;28;20031;-52
2022/10/10 06:16:56;;;;;;;2.85;1.60;;;;;;;;;;5079227;28;20787;-49
2022/10/10 06:19:22;;;;;;;0.63;0.63;;;;;;;;;;5082316;28;20032;-50
2022/10/10 06:21:48;;;;;;;1.13;1.02;;;;;;;;;;5087776;28;20024;-52
2022/10/10 06:24:14;;;;;;;1.42;1.05;;;;;;;;;;5080439;28;20736;-48
2022/10/10 06:26:40;;;;;;;1.27;1.10;;;;;;;;;;5082453;28;20582;-52
2022/10/10 06:29:07;;;;;;;3.05;1.30;;;;;;;;;;5080580;28;20039;-51
2022/10/10 06:31:38;;;;;;;1.40;1.30;;;;;;;;;;5076829;28;20412;-52
2022/10/10 06:34:04;;;;;;;1.10;1.00;;;;;;;;;;5078014;28;20042;-49
2022/10/10 06:36:30;;;;;;;1.33;1.17;;;;;;;;;;5081536;28;20032;-50
2022/10/10 06:38:56;;;;;;;1.27;1.08;;;;;;;;;;5081012;28;20173;-50
2022/10/10 06:41:22;;;;;;;1.20;1.10;;;;;;;;;;5086104;28;20514;-51
2022/10/10 06:43:50;;;;;;;2.10;1.08;;;;;;;;;;5081194;28;20039;-51
2022/10/10 06:46:16;;;;;;;1.33;1.17;;;;;;;;;;5085549;28;20031;-49
2022/10/10 06:48:42;;;;;;;1.10;1.00;;;;;;;;;;5085797;28;20058;-51
2022/10/10 06:51:13;;;;;;;1.33;1.20;;;;;;;;;;5088004;28;20024;-49
2022/10/10 06:53:39;;;;;;;1.50;1.40;;;;;;;;;;5085267;28;20028;-49
2022/10/10 06:56:05;;;;;;;2.08;1.30;;;;;;;;;;5087636;28;20616;-49
2022/10/10 06:58:31;;;;;;;1.27;1.15;;;;;;;;;;5084460;28;20027;-51
2022/10/10 07:00:59;;;;;;;1.45;1.05;;;;;;;;;;5084803;28;20034;-50
2022/10/10 07:03:26;;;;;;;1.58;1.15;;;;;;;;;;5079751;28;20514;-49
2022/10/10 07:05:54;;;;;;;1.25;1.05;;;;;;;;;;5075370;28;20032;-52
2022/10/10 07:08:20;;;;;;;1.15;0.90;;;;;;;;;;5085850;28;20087;-51
2022/10/10 07:10:46;;;;;;;1.10;0.93;;;;;;;;;;5087565;28;20043;-50
2022/10/10 07:13:13;;;;;;;0.88;0.88;;;;;;;;;;5087154;28;20530;-49
2022/10/10 07:15:39;;;;;;;1.45;0.90;;;;;;;;;;5088901;28;20051;-52
2022/10/10 07:18:05;;;;;;;1.83;1.30;;;;;;;;;;5080065;28;20032;-51
2022/10/10 07:20:31;;;;;;;1.48;1.05;;;;;;;;;;5086325;28;20050;-53
2022/10/10 07:22:57;;;;;;;0.80;0.80;;;;;;;;;;5090556;28;20103;-51
2022/10/10 07:25:24;;;;;;;1.05;0.90;;;;;;;;;;5088598;28;20035;-52
2022/10/10 07:27:50;;;;;;;0.70;0.70;;;;;;;;;;5089657;28;20077;-50
2022/10/10 07:30:16;;;;;;;0.68;0.65;;;;;;;;;;5087961;28;20028;-50
2022/10/10 07:32:42;;;;;;;0.63;0.63;;;;;;;;;;5087412;28;20058;-53
2022/10/10 07:35:10;;;;;;;0.75;0.75;;;;;;;;;;5089086;28;20518;-50
2022/10/10 07:37:36;;;;;;;1.85;0.70;;;;;;;;;;5089434;28;20494;-52
2022/10/10 07:40:02;;;;;;;0.70;0.70;;;;;;;;;;5079490;28;20024;-53
2022/10/10 07:42:28;;;;;;;0.73;0.73;;;;;;;;;;5073659;28;20471;-51
2022/10/10 07:44:54;;;;;;;0.70;0.70;;;;;;;;;;5085724;28;20102;-54
2022/10/10 07:47:20;;;;;;;0.80;0.63;;;;;;;;;;5079184;28;20023;-52
2022/10/10 07:49:46;;;;;;;0.57;0.57;;;;;;;;;;5082900;28;20044;-51
2022/10/10 07:52:12;;;;;;;0.60;0.60;;;;;;;;;;5084737;28;20173;-49
2022/10/10 07:54:38;;;;;;;0.60;0.60;;;;;;;;;;5089829;28;20612;-52
2022/10/10 07:57:04;;;;;;;0.50;0.50;;;;;;;;;;5076650;28;20352;-50
2022/10/10 07:59:30;;;;;;;0.50;0.50;;;;;;;;;;5089125;28;20028;-49
2022/10/10 08:01:56;;;;;;;0.77;0.73;;;;;;;;;;5090159;28;20031;-50
2022/10/10 08:04:22;;;;;;;1.23;0.50;;;;;;;;;;5088144;28;20506;-50
2022/10/10 08:06:48;;;;;;;0.60;0.60;;;;;;;;;;5086092;28;20379;-52
2022/10/10 08:09:14;;;;;;;0.57;0.57;;;;;;;;;;5083577;28;20028;-52
2022/10/10 08:11:40;;;;;;;0.95;0.65;;;;;;;;;;5080530;28;20560;-51
2022/10/10 08:14:06;;;;;;;0.70;0.70;;;;;;;;;;5086168;28;20101;-51
2022/10/10 08:16:33;;;;;;;0.77;0.77;;;;;;;;;;5089999;28;20063;-53
2022/10/10 08:18:59;;;;;;;0.50;0.50;;;;;;;;;;5088415;28;20107;-53
2022/10/10 08:21:25;;;;;;;0.80;0.75;;;;;;;;;;5076972;28;20024;-52
2022/10/10 08:23:51;;;;;;;0.73;0.50;;;;;;;;;;5084825;28;20032;-51
2022/10/10 08:26:18;;;;;;;0.90;0.80;;;;;;;;;;5089838;28;20418;-51
2022/10/10 08:28:46;;;;;;;2.10;1.15;;;;;;;;;;5086823;28;20450;-50
2022/10/10 08:31:15;;;;;;;1.48;0.90;;;;;;;;;;5089404;28;20862;-53
2022/10/10 08:33:42;;;;;;;1.27;0.75;;;;;;;;;;5087996;28;20713;-53
2022/10/10 08:36:11;;;;;;;0.98;0.73;;;;;;;;;;5090096;28;20048;-51
2022/10/10 08:38:37;;;;;;;0.73;0.73;;;;;;;;;;5088413;28;20059;-52
2022/10/10 08:41:09;;;;;;;0.68;0.65;;;;;;;;;;5083696;28;20122;-52
2022/10/10 08:43:40;;;;;;;0.63;0.60;;;;;;;;;;5088017;28;20073;-52
2022/10/10 08:46:14;;;;;;;0.82;0.65;;;;;;;;;;5090049;28;20458;-51
2022/10/10 08:48:40;;;;;;;1.95;0.68;;;;;;;;;;5086801;28;20024;-51
2022/10/10 08:51:09;;;;;;;1.00;0.80;;;;;;;;;;5088920;28;20055;-51
2022/10/10 08:53:38;;;;;;;1.15;0.70;;;;;;;;;;5083056;28;20020;-50
2022/10/10 08:56:09;;;;;;;1.13;0.60;;;;;;;;;;5083444;28;20101;-52
2022/10/10 08:58:49;;;;;;;0.60;0.60;;;;;;;;;;5085161;28;20016;-52
2022/10/10 09:01:22;;;;;;;1.77;0.82;;;;;;;;;;5075796;28;20032;-52
2022/10/10 09:03:49;;;;;;;1.30;0.70;;;;;;;;;;5080149;28;20056;-51
2022/10/10 09:06:18;;;;;;;0.88;0.80;;;;;;;;;;5086460;28;20024;-53
2022/10/10 09:08:47;;;;;;;1.10;0.80;;;;;;;;;;5084552;28;20032;-50
2022/10/10 09:11:19;;;;;;;0.98;0.88;;;;;;;;;;5087004;28;20038;-50
2022/10/10 09:13:50;;;;;;;1.08;0.90;;;;;;;;;;5084970;28;20024;-50
2022/10/10 09:16:16;;;;;;;0.77;0.77;;;;;;;;;;5079479;28;20564;-52
2022/10/10 09:18:52;;;;;;;0.70;0.70;;;;;;;;;;5073487;28;20075;-51
2022/10/10 09:21:23;;;;;;;0.70;0.70;;;;;;;;;;5080523;28;20036;-50
2022/10/10 09:23:49;;;;;;;0.60;0.60;;;;;;;;;;5085634;28;20494;-52
2022/10/10 09:26:18;;;;;;;0.57;0.57;;;;;;;;;;5084816;28;20024;-51
2022/10/10 09:28:49;;;;;;;0.98;0.80;;;;;;;;;;5087238;28;20060;-51
2022/10/10 09:31:23;;;;;;;0.80;0.80;;;;;;;;;;5088026;28;20028;-51
2022/10/10 09:34:01;;;;;;;0.70;0.50;;;;;;;;;;5084315;28;20032;-50
2022/10/10 09:36:32;;;;;;;0.50;0.50;;;;;;;;;;5078675;28;20038;-51
2022/10/10 09:39:01;;;;;;;0.88;0.75;;;;;;;;;;5087447;28;20080;-49
2022/10/10 09:41:35;;;;;;;0.88;0.60;;;;;;;;;;5086022;28;20069;-49
2022/10/10 09:44:04;;;;;;;0.40;0.40;;;;;;;;;;5084903;28;20077;-48
2022/10/10 09:46:30;;;;;;;0.70;0.70;;;;;;;;;;5085398;28;20028;-48
2022/10/10 09:48:56;;;;;;;1.52;1.00;;;;;;;;;;5083288;28;20035;-51
2022/10/10 09:51:22;;;;;;;1.77;1.02;;;;;;;;;;5085124;28;20039;-48
2022/10/10 09:53:49;;;;;;;1.20;1.10;;;;;;;;;;5085177;28;20028;-50
2022/10/10 09:56:30;;;;;;;1.70;0.80;;;;;;;;;;5077562;28;20052;-49
2022/10/10 09:58:57;;;;;;;0.98;0.93;;;;;;;;;;5075856;28;20036;-51
2022/10/10 10:01:24;;;;;;;0.80;0.80;;;;;;;;;;5072095;28;20067;-49
2022/10/10 10:04:05;;;;;;;1.08;0.95;;;;;;;;;;5082782;28;20024;-53
2022/10/10 10:06:31;;;;;;;0.70;0.70;;;;;;;;;;5084821;28;20109;-50
2022/10/10 10:09:00;;;;;;;1.10;1.00;;;;;;;;;;5084432;28;20032;-51
2022/10/10 10:11:38;;;;;;;2.15;1.05;;;;;;;;;;5081688;28;20399;-48
2022/10/10 10:14:04;;;;;;;1.25;0.77;;;;;;;;;;5085417;28;20244;-49
2022/10/10 10:16:37;;;;;;;0.90;0.73;;;;;;;;;;5085833;28;20437;-47
2022/10/10 10:19:06;;;;;;;1.30;0.70;;;;;;;;;;5078348;28;20068;-52
2022/10/10 10:21:32;;;;;;;1.17;0.98;;;;;;;;;;5078928;28;20317;-50
2022/10/10 10:24:00;;;;;;;0.70;0.70;;;;;;;;;;5086475;28;20499;-51
2022/10/10 10:26:41;;;;;;;0.90;0.90;;;;;;;;;;5083010;28;20051;-50
2022/10/10 10:29:25;;;;;;;2.22;0.82;;;;;;;;;;5080722;28;20499;-51
2022/10/10 10:31:52;;;;;;;;;;;;;;;;;;5079676;28;20116;-51
2022/10/10 10:34:30;;;;;;;1.10;1.00;;;;;;;;;;5085299;28;19954;-50
2022/10/10 10:37:14;;;;;;;0.98;0.70;;;;;;;;;;5086075;28;20043;-50
2022/10/10 10:40:05;;;;;;;1.40;1.00;;;;;;;;;;5071720;28;20036;-49
2022/10/10 10:42:34;;;;;;;0.95;0.68;;;;;;;;;;5080816;28;20034;-51
2022/10/10 10:45:36;;;;;;;2.15;1.10;;;;;;;;;;5087625;28;20148;-50
2022/10/10 10:48:02;;;;;;;1.67;0.88;;;;;;;;;;5020972;28;20037;-48
2022/10/10 10:50:42;;;;;;;0.70;0.70;;;;;;;;;;5058464;28;20044;-49
2022/10/10 10:53:17;;;;;;;1.38;1.20;;;;;;;;;;5086123;28;20058;-50
2022/10/10 10:55:54;;;;;;;2.08;1.40;;;;;;;;;;5087546;28;20032;-48
2022/10/10 10:58:32;;;;;;;1.33;1.00;;;;;;;;;;5082270;28;20031;-51
2022/10/10 11:00:58;;;;;;;1.40;0.90;;;;;;;;;;5086710;28;20036;-52
2022/10/10 11:03:35;;;;;;;1.10;1.00;;;;;;;;;;5084184;28;20073;-51
2022/10/10 11:06:18;;;;;;;0.88;0.80;;;;;;;;;;5086395;28;20036;-49
2022/10/10 11:08:53;;;;;;;1.10;0.90;;;;;;;;;;5079870;28;20024;-50
2022/10/10 11:11:25;;;;;;;2.53;1.20;;;;;;;;;;5083281;28;20423;-51
2022/10/10 11:13:51;;;;;;;1.27;1.00;;;;;;;;;;5085757;28;20074;-52
2022/10/10 11:16:29;;;;;;;0.80;0.80;;;;;;;;;;5082922;28;20028;-51
2022/10/10 11:18:56;;;;;;;1.17;0.88;;;;;;;;;;5075059;28;20475;-51
2022/10/10 11:21:25;;;;;;;1.13;1.02;;;;;;;;;;5067168;28;20415;-49
2022/10/10 11:23:54;;;;;;;2.42;0.90;;;;;;;;;;5084377;28;20066;-51
2022/10/10 11:26:30;;;;;;;1.05;0.80;;;;;;;;;;5082162;28;20074;-49
2022/10/10 11:29:11;;;;;;;0.75;0.75;;;;;;;;;;5078546;28;20032;-52
2022/10/10 11:31:39;;;;;;;1.38;0.70;;;;;;;;;;5065832;28;20029;-49
2022/10/10 11:34:12;;;;;;;2.20;1.10;;;;;;;;;;5065911;28;20029;-49
2022/10/10 11:36:40;;;;;;;2.55;1.08;;;;;;;;;;5064805;28;20028;-48
2022/10/10 11:39:15;;;;;;;1.17;0.80;;;;;;;;;;5064223;28;20082;-52
2022/10/10 11:41:45;;;;;;;3.13;0.93;;;;;;;;;;5063689;28;20103;-48
2022/10/10 11:44:16;;;;;;;0.77;0.77;;;;;;;;;;5064184;28;20024;-48
2022/10/10 11:46:54;;;;;;;0.80;0.80;;;;;;;;;;5064346;28;20178;-51
2022/10/10 11:49:40;;;;;;;0.70;0.63;;;;;;;;;;5064059;28;20055;-48
2022/10/10 11:52:18;;;;;;;1.10;0.80;;;;;;;;;;5064344;28;20036;-52
2022/10/10 11:55:00;;;;;;;1.27;0.70;;;;;;;;;;5064045;28;20099;-49
2022/10/10 11:57:30;;;;;;;1.48;1.00;;;;;;;;;;5064512;28;20039;-48
2022/10/10 11:59:59;;;;;;;0.85;0.77;;;;;;;;;;5066800;28;20023;-49
2022/10/10 12:02:27;;;;;;;0.90;0.70;;;;;;;;;;5068151;28;20028;-51
2022/10/10 12:04:53;;;;;;;0.50;0.50;;;;;;;;;;5067812;28;20027;-51
2022/10/10 12:07:25;;;;;;;2.47;0.60;;;;;;;;;;5067834;28;20653;-50
2022/10/10 12:09:53;;;;;;;0.60;0.60;;;;;;;;;;5067273;28;20017;-48
2022/10/10 12:12:21;;;;;;;0.77;0.55;;;;;;;;;;5067944;28;20044;-52
2022/10/10 12:14:52;;;;;;;0.82;0.40;;;;;;;;;;5067531;28;20035;-49
2022/10/10 12:17:29;;;;;;;0.75;0.50;;;;;;;;;;5067398;28;20102;-49
2022/10/10 12:19:55;;;;;;;0.65;0.65;;;;;;;;;;5067960;28;20025;-49
2022/10/10 12:22:23;;;;;;;0.38;0.38;;;;;;;;;;5067373;28;20056;-49
2022/10/10 12:25:07;;;;;;;0.40;0.40;;;;;;;;;;5067236;28;20034;-48
2022/10/10 12:27:44;;;;;;;0.93;0.57;;;;;;;;;;5067170;28;20049;-52
2022/10/10 12:30:15;;;;;;;0.60;0.50;;;;;;;;;;5067386;28;20032;-49
2022/10/10 12:32:42;;;;;;;1.17;0.52;;;;;;;;;;5067271;28;20035;-49
2022/10/10 12:35:26;;;;;;;1.20;0.52;;;;;;;;;;5067416;28;20035;-48
2022/10/10 12:38:04;;;;;;;0.32;0.32;;;;;;;;;;5067200;28;20032;-50
2022/10/10 12:40:32;;;;;;;1.67;0.40;;;;;;;;;;5066753;28;20109;-50
2022/10/10 12:43:03;;;;;;;0.30;0.30;;;;;;;;;;5067760;28;20063;-50
2022/10/10 12:45:30;;;;;;;1.38;0.50;;;;;;;;;;5067516;28;20035;-49
2022/10/10 12:47:59;;;;;;;0.65;0.60;;;;;;;;;;5067893;28;20491;-49
2022/10/10 12:50:34;;;;;;;1.55;0.60;;;;;;;;;;5067291;28;20414;-48
2022/10/10 12:53:01;;;;;;;0.50;0.50;;;;;;;;;;5067216;28;20031;-53
2022/10/10 12:55:28;;;;;;;0.90;0.50;;;;;;;;;;5067086;28;20036;-51
2022/10/10 12:58:01;;;;;;;0.90;0.43;;;;;;;;;;5066955;28;20025;-49
2022/10/10 13:00:35;;;;;;;0.57;0.57;;;;;;;;;;5067121;28;20040;-51
2022/10/10 13:03:02;;;;;;;;;;;;;;;;;;5067219;28;20025;-52
2022/10/10 13:05:30;;;;;;;1.10;0.40;;;;;;;;;;5067186;28;19911;-51
2022/10/10 13:07:59;;;;;;;1.08;0.60;;;;;;;;;;5067030;28;20035;-51
2022/10/10 13:10:27;;;;;;;0.30;0.30;;;;;;;;;;5065248;28;20336;-49
2022/10/10 13:13:14;;;;;;;0.63;0.40;;;;;;;;;;5067070;28;20043;-50
2022/10/10 13:15:50;;;;;;;1.25;0.50;;;;;;;;;;5066985;28;20536;-50
2022/10/10 13:18:31;;;;;;;0.88;0.50;;;;;;;;;;5066501;28;20025;-51
2022/10/10 13:20:57;;;;;;;0.52;0.43;;;;;;;;;;5067023;28;20095;-49
2022/10/10 13:23:24;;;;;;;2.22;0.52;;;;;;;;;;5066155;28;20107;-52
2022/10/10 13:25:50;;;;;;;0.30;0.30;;;;;;;;;;5066176;28;20099;-49
2022/10/10 13:28:17;;;;;;;0.85;0.40;;;;;;;;;;5065994;28;20040;-49
2022/10/10 13:30:45;;;;;;;0.60;0.60;;;;;;;;;;5066051;28;20069;-48
2022/10/10 13:33:14;;;;;;;3.22;0.60;;;;;;;;;;5078039;28;20032;-48
2022/10/10 13:35:40;;;;;;;0.80;0.60;;;;;;;;;;5082709;28;20028;-48
2022/10/10 13:38:06;;;;;;;0.60;0.60;;;;;;;;;;5087279;28;20039;-49
2022/10/10 13:40:32;;;;;;;0.77;0.60;;;;;;;;;;5086846;28;20040;-49
2022/10/10 13:42:58;;;;;;;1.20;0.70;;;;;;;;;;5085976;28;20039;-52
2022/10/10 13:45:24;;;;;;;1.00;0.60;;;;;;;;;;5075537;28;20032;-50
2022/10/10 13:47:55;;;;;;;1.70;0.93;;;;;;;;;;5067118;28;20073;-51
2022/10/10 13:50:24;;;;;;;1.50;0.52;;;;;;;;;;5066536;28;20377;-48
2022/10/10 13:53:13;;;;;;;0.60;0.60;;;;;;;;;;5066991;28;20029;-49
2022/10/10 13:55:40;;;;;;;0.65;0.65;;;;;;;;;;5086491;28;20031;-49
2022/10/10 13:58:09;;;;;;;0.50;0.50;;;;;;;;;;5087426;28;20043;-49
2022/10/10 14:00:37;;;;;;;0.68;0.60;;;;;;;;;;5086996;28;20507;-50
2022/10/10 14:03:13;;;;;;;0.40;0.40;;;;;;;;;;5086680;28;20075;-49
2022/10/10 14:05:42;;;;;;;0.30;0.30;;;;;;;;;;5067609;28;20170;-49
2022/10/10 14:08:19;;;;;;;0.43;0.40;;;;;;;;;;5067090;28;20033;-48
2022/10/10 14:11:04;;;;;;;0.40;0.40;;;;;;;;;;5066958;28;20527;-49
2022/10/10 14:13:32;;;;;;;0.82;0.50;;;;;;;;;;5066737;28;20047;-51
2022/10/10 14:16:10;;;;;;;0.90;0.60;;;;;;;;;;5084046;28;20024;-47
2022/10/10 14:18:36;;;;;;;1.25;0.65;;;;;;;;;;5086544;28;20031;-49
2022/10/10 14:21:03;;;;;;;1.05;0.77;;;;;;;;;;5070592;28;20032;-48
2022/10/10 14:23:30;;;;;;;0.50;0.50;;;;;;;;;;5064818;28;20032;-48
2022/10/10 14:25:57;;;;;;;0.88;0.50;;;;;;;;;;5063921;28;20534;-48
2022/10/10 14:28:28;;;;;;;1.23;0.60;;;;;;;;;;5076646;28;20456;-48
2022/10/10 14:30:54;;;;;;;1.75;0.75;;;;;;;;;;5077326;28;20507;-48
2022/10/10 14:33:21;;;;;;;0.65;0.60;;;;;;;;;;5070762;28;20134;-51
2022/10/10 14:35:48;;;;;;;1.13;0.70;;;;;;;;;;5074383;28;20036;-49
2022/10/10 14:38:15;;;;;;;1.52;0.80;;;;;;;;;;5073735;28;20383;-50
2022/10/10 14:40:42;;;;;;;0.57;0.50;;;;;;;;;;5081004;28;20024;-51
2022/10/10 14:43:08;;;;;;;1.98;0.80;;;;;;;;;;5066227;28;20028;-48
2022/10/10 14:45:34;;;;;;;2.10;0.95;;;;;;;;;;5069474;28;20762;-50
2022/10/10 14:48:00;;;;;;;1.90;1.02;;;;;;;;;;5084480;28;20024;-51
2022/10/10 14:50:35;;;;;;;1.02;0.50;;;;;;;;;;5077193;28;20388;-48
2022/10/10 14:53:01;;;;;;;1.42;0.90;;;;;;;;;;5079846;28;20028;-50
2022/10/10 14:55:28;;;;;;;0.60;0.60;;;;;;;;;;5080434;28;20035;-50